KLM32 EHGG-EDDW
Flight info
| Callsign | KLM32 |
|---|---|
| Flight time | 0h 24m |
| Altitude | 17000 |
| Route | DOBAK DCT SUQIF M105 REVLA T948 GIBMA GIBMA2P |
| Aircraft | A320/M-SDE3FGHIRWY/LB1 |
Departure
| Time | 2026-05-07 06:52 |
|---|---|
| Airport | Groningen Airport Eelde (EHGG) |
Arrival
| Time | 2026-05-07 07:17 |
|---|---|
| Airport | Bremen Airport (EDDW) |
| Time | Latitude | Longitude | Altitude | Speed | Heading |
|---|---|---|---|---|---|
| 2026-05-07 06:30 | 53.12820 | 6.58590 | 23 ft | 0 kts | 355° |
| 2026-05-07 06:45 | 53.12824 | 6.58599 | 22 ft | 2 kts | 59° |
| 2026-05-07 06:46 | 53.12812 | 6.58626 | 24 ft | 3 kts | 137° |
| 2026-05-07 06:46 | 53.12783 | 6.58636 | 23 ft | 11 kts | 185° |
| 2026-05-07 06:46 | 53.12716 | 6.58546 | 22 ft | 13 kts | 233° |
| 2026-05-07 06:46 | 53.12660 | 6.58422 | 22 ft | 13 kts | 233° |
| 2026-05-07 06:47 | 53.12603 | 6.58301 | 21 ft | 13 kts | 231° |
| 2026-05-07 06:47 | 53.12547 | 6.58186 | 21 ft | 13 kts | 231° |
| 2026-05-07 06:47 | 53.12458 | 6.57993 | 22 ft | 25 kts | 232° |
| 2026-05-07 06:47 | 53.12330 | 6.57840 | 26 ft | 22 kts | 190° |
| 2026-05-07 06:48 | 53.12188 | 6.57797 | 31 ft | 21 kts | 190° |
| 2026-05-07 06:48 | 53.12083 | 6.57670 | 29 ft | 19 kts | 231° |
| 2026-05-07 06:48 | 53.11982 | 6.57455 | 28 ft | 28 kts | 232° |
| 2026-05-07 06:48 | 53.11854 | 6.57188 | 28 ft | 31 kts | 231° |
| 2026-05-07 06:49 | 53.11730 | 6.56925 | 28 ft | 29 kts | 232° |
| 2026-05-07 06:49 | 53.11625 | 6.56791 | 28 ft | 15 kts | 180° |
| 2026-05-07 06:49 | 53.11546 | 6.56869 | 31 ft | 12 kts | 140° |
| 2026-05-07 06:49 | 53.11486 | 6.56895 | 32 ft | 9 kts | 218° |
| 2026-05-07 06:50 | 53.11420 | 6.56770 | 29 ft | 23 kts | 231° |
| 2026-05-07 06:50 | 53.11322 | 6.56552 | 25 ft | 24 kts | 230° |
| 2026-05-07 06:50 | 53.11220 | 6.56344 | 28 ft | 23 kts | 234° |
| 2026-05-07 06:50 | 53.11177 | 6.56106 | 27 ft | 16 kts | 258° |
| 2026-05-07 06:51 | 53.11122 | 6.56082 | 28 ft | 8 kts | 130° |
| 2026-05-07 06:51 | 53.11131 | 6.56146 | 28 ft | 0 kts | 49° |
| 2026-05-07 06:51 | 53.11153 | 6.56188 | 27 ft | 25 kts | 49° |
| 2026-05-07 06:52 | 53.11434 | 6.56780 | 29 ft | 101 kts | 53° |
| 2026-05-07 06:52 | 53.12003 | 6.57952 | 60 ft | 154 kts | 48° |
| 2026-05-07 06:52 | 53.12702 | 6.59356 | 714 ft | 158 kts | 49° |
| 2026-05-07 06:52 | 53.13410 | 6.60753 | 1520 ft | 161 kts | 49° |
| 2026-05-07 06:53 | 53.14182 | 6.62268 | 1979 ft | 183 kts | 49° |
| 2026-05-07 06:53 | 53.15062 | 6.64003 | 2400 ft | 208 kts | 50° |
| 2026-05-07 06:53 | 53.16037 | 6.65973 | 2929 ft | 233 kts | 54° |
| 2026-05-07 06:53 | 53.16621 | 6.68594 | 3642 ft | 251 kts | 79° |
| 2026-05-07 06:54 | 53.16884 | 6.71498 | 4671 ft | 255 kts | 80° |
| 2026-05-07 06:54 | 53.17144 | 6.74441 | 5705 ft | 259 kts | 80° |
| 2026-05-07 06:54 | 53.17412 | 6.77432 | 6705 ft | 263 kts | 81° |
| 2026-05-07 06:54 | 53.17685 | 6.80479 | 7607 ft | 268 kts | 81° |
| 2026-05-07 06:55 | 53.17964 | 6.83594 | 8520 ft | 274 kts | 81° |
| 2026-05-07 06:55 | 53.18248 | 6.86770 | 9423 ft | 280 kts | 80° |
| 2026-05-07 06:55 | 53.18541 | 6.90023 | 10232 ft | 289 kts | 81° |
| 2026-05-07 06:55 | 53.18853 | 6.93476 | 10593 ft | 313 kts | 80° |
| 2026-05-07 06:56 | 53.19187 | 6.97184 | 10956 ft | 333 kts | 80° |
| 2026-05-07 06:56 | 53.19532 | 7.01064 | 11643 ft | 342 kts | 81° |
| 2026-05-07 06:56 | 53.19877 | 7.04971 | 12408 ft | 348 kts | 81° |
| 2026-05-07 06:56 | 53.20230 | 7.08995 | 13169 ft | 354 kts | 81° |
| 2026-05-07 06:57 | 53.20587 | 7.13088 | 13944 ft | 359 kts | 81° |
| 2026-05-07 06:57 | 53.20949 | 7.17240 | 14643 ft | 363 kts | 81° |
| 2026-05-07 06:57 | 53.21299 | 7.21439 | 15346 ft | 367 kts | 84° |
| 2026-05-07 06:57 | 53.21395 | 7.25722 | 15835 ft | 371 kts | 88° |
| 2026-05-07 06:58 | 53.21445 | 7.30022 | 16084 ft | 371 kts | 89° |
| 2026-05-07 06:58 | 53.21488 | 7.34335 | 16342 ft | 372 kts | 89° |
| 2026-05-07 06:58 | 53.21529 | 7.38658 | 16601 ft | 372 kts | 89° |
| 2026-05-07 06:58 | 53.21569 | 7.42982 | 16861 ft | 374 kts | 89° |
| 2026-05-07 06:59 | 53.21608 | 7.47344 | 17017 ft | 377 kts | 89° |
| 2026-05-07 06:59 | 53.21649 | 7.51767 | 17038 ft | 384 kts | 89° |
| 2026-05-07 06:59 | 53.21689 | 7.56237 | 17035 ft | 386 kts | 88° |
| 2026-05-07 06:59 | 53.21960 | 7.60688 | 17037 ft | 386 kts | 78° |
| 2026-05-07 07:00 | 53.22670 | 7.64993 | 17035 ft | 385 kts | 71° |
| 2026-05-07 07:00 | 53.23493 | 7.69250 | 17037 ft | 386 kts | 72° |
| 2026-05-07 07:00 | 53.24312 | 7.73511 | 17040 ft | 385 kts | 72° |
| 2026-05-07 07:00 | 53.25129 | 7.77781 | 17044 ft | 386 kts | 72° |
| 2026-05-07 07:01 | 53.25944 | 7.82051 | 17032 ft | 386 kts | 72° |
| 2026-05-07 07:01 | 53.26758 | 7.86321 | 17032 ft | 385 kts | 72° |
| 2026-05-07 07:01 | 53.27570 | 7.90578 | 16970 ft | 382 kts | 71° |
| 2026-05-07 07:01 | 53.28365 | 7.94755 | 16706 ft | 371 kts | 72° |
| 2026-05-07 07:02 | 53.29134 | 7.98823 | 16447 ft | 365 kts | 72° |
| 2026-05-07 07:02 | 53.29892 | 8.02846 | 16189 ft | 361 kts | 72° |
| 2026-05-07 07:02 | 53.30633 | 8.06793 | 15928 ft | 360 kts | 71° |
| 2026-05-07 07:02 | 53.31392 | 8.10836 | 15668 ft | 358 kts | 72° |
| 2026-05-07 07:03 | 53.32088 | 8.14741 | 15255 ft | 354 kts | 76° |
| 2026-05-07 07:03 | 53.32408 | 8.18813 | 14796 ft | 353 kts | 88° |
| 2026-05-07 07:03 | 53.32278 | 8.22907 | 14323 ft | 352 kts | 95° |
| 2026-05-07 07:03 | 53.32056 | 8.26976 | 13840 ft | 351 kts | 94° |
| 2026-05-07 07:04 | 53.31839 | 8.31040 | 13317 ft | 350 kts | 94° |
| 2026-05-07 07:04 | 53.31625 | 8.35078 | 12823 ft | 347 kts | 94° |
| 2026-05-07 07:04 | 53.31411 | 8.39075 | 12323 ft | 344 kts | 94° |
| 2026-05-07 07:04 | 53.31198 | 8.43047 | 11832 ft | 341 kts | 94° |
| 2026-05-07 07:05 | 53.30987 | 8.46982 | 11334 ft | 338 kts | 94° |
| 2026-05-07 07:05 | 53.30773 | 8.50886 | 10831 ft | 336 kts | 94° |
| 2026-05-07 07:05 | 53.30557 | 8.54755 | 10403 ft | 331 kts | 94° |
| 2026-05-07 07:05 | 53.30347 | 8.58506 | 10267 ft | 317 kts | 94° |
| 2026-05-07 07:06 | 53.30089 | 8.62081 | 10146 ft | 305 kts | 102° |
| 2026-05-07 07:06 | 53.29362 | 8.65347 | 9993 ft | 296 kts | 117° |
| 2026-05-07 07:06 | 53.28159 | 8.68106 | 9583 ft | 297 kts | 133° |
| 2026-05-07 07:06 | 53.26571 | 8.70295 | 9233 ft | 293 kts | 141° |
| 2026-05-07 07:07 | 53.24959 | 8.72367 | 8832 ft | 291 kts | 141° |
| 2026-05-07 07:07 | 53.23270 | 8.74113 | 8446 ft | 290 kts | 158° |
| 2026-05-07 07:07 | 53.21290 | 8.74622 | 8052 ft | 291 kts | 183° |
| 2026-05-07 07:07 | 53.19362 | 8.73665 | 7643 ft | 291 kts | 209° |
| 2026-05-07 07:08 | 53.17804 | 8.71532 | 7220 ft | 290 kts | 224° |
| 2026-05-07 07:08 | 53.16368 | 8.69201 | 6584 ft | 287 kts | 224° |
| 2026-05-07 07:08 | 53.14967 | 8.66866 | 5886 ft | 282 kts | 230° |
| 2026-05-07 07:08 | 53.13933 | 8.64146 | 5358 ft | 272 kts | 242° |
| 2026-05-07 07:09 | 53.13091 | 8.61481 | 5217 ft | 249 kts | 243° |
| 2026-05-07 07:09 | 53.12323 | 8.59021 | 5018 ft | 232 kts | 243° |
| 2026-05-07 07:09 | 53.11591 | 8.56670 | 4585 ft | 227 kts | 243° |
| 2026-05-07 07:09 | 53.10867 | 8.54345 | 4092 ft | 225 kts | 243° |
| 2026-05-07 07:10 | 53.10149 | 8.52038 | 3612 ft | 223 kts | 243° |
| 2026-05-07 07:10 | 53.09437 | 8.49750 | 3148 ft | 222 kts | 243° |
| 2026-05-07 07:10 | 53.08740 | 8.47501 | 3008 ft | 219 kts | 243° |
| 2026-05-07 07:10 | 53.08039 | 8.45231 | 3009 ft | 220 kts | 243° |
| 2026-05-07 07:11 | 53.07174 | 8.43274 | 2996 ft | 206 kts | 213° |
| 2026-05-07 07:11 | 53.05881 | 8.42451 | 3015 ft | 196 kts | 184° |
| 2026-05-07 07:11 | 53.04622 | 8.42618 | 3017 ft | 172 kts | 150° |
| 2026-05-07 07:11 | 53.04047 | 8.43397 | 2990 ft | 153 kts | 116° |
| 2026-05-07 07:12 | 53.03916 | 8.45626 | 3018 ft | 161 kts | 84° |
| 2026-05-07 07:12 | 53.03951 | 8.47519 | 3009 ft | 169 kts | 86° |
| 2026-05-07 07:12 | 53.03989 | 8.49515 | 3003 ft | 174 kts | 86° |
| 2026-05-07 07:12 | 53.04019 | 8.50882 | 3000 ft | 175 kts | 86° |
| 2026-05-07 07:13 | 53.04068 | 8.52910 | 2927 ft | 176 kts | 85° |
| 2026-05-07 07:13 | 53.04118 | 8.54939 | 2736 ft | 176 kts | 86° |
| 2026-05-07 07:13 | 53.04168 | 8.56968 | 2516 ft | 175 kts | 86° |
| 2026-05-07 07:13 | 53.04218 | 8.58983 | 2275 ft | 174 kts | 86° |
| 2026-05-07 07:14 | 53.04266 | 8.60967 | 2037 ft | 168 kts | 87° |
| 2026-05-07 07:14 | 53.04311 | 8.62823 | 1805 ft | 153 kts | 87° |
| 2026-05-07 07:14 | 53.04351 | 8.64494 | 1629 ft | 135 kts | 87° |
| 2026-05-07 07:14 | 53.04388 | 8.66009 | 1435 ft | 129 kts | 87° |
| 2026-05-07 07:15 | 53.04423 | 8.67475 | 1257 ft | 126 kts | 86° |
| 2026-05-07 07:15 | 53.04457 | 8.68925 | 1078 ft | 125 kts | 87° |
| 2026-05-07 07:15 | 53.04492 | 8.70365 | 904 ft | 124 kts | 87° |
| 2026-05-07 07:15 | 53.04525 | 8.71789 | 732 ft | 124 kts | 87° |
| 2026-05-07 07:16 | 53.04559 | 8.73222 | 574 ft | 124 kts | 85° |
| 2026-05-07 07:16 | 53.04593 | 8.74667 | 398 ft | 125 kts | 86° |
| 2026-05-07 07:16 | 53.04626 | 8.76103 | 232 ft | 125 kts | 86° |
| 2026-05-07 07:16 | 53.04661 | 8.77540 | 48 ft | 124 kts | 85° |
| 2026-05-07 07:17 | 53.04690 | 8.78795 | 20 ft | 78 kts | 89° |
| 2026-05-07 07:17 | 53.04701 | 8.79222 | 19 ft | 15 kts | 74° |
| 2026-05-07 07:17 | 53.04788 | 8.79288 | 20 ft | 12 kts | 8° |
| 2026-05-07 07:17 | 53.04859 | 8.79265 | 22 ft | 10 kts | 320° |
| 2026-05-07 07:18 | 53.04866 | 8.79148 | 20 ft | 11 kts | 264° |
| 2026-05-07 07:18 | 53.04858 | 8.79004 | 17 ft | 13 kts | 265° |
| 2026-05-07 07:18 | 53.04881 | 8.78874 | 16 ft | 12 kts | 322° |
| 2026-05-07 07:18 | 53.04940 | 8.78797 | 17 ft | 10 kts | 321° |
| 2026-05-07 07:19 | 53.04988 | 8.78724 | 17 ft | 9 kts | 306° |
| 2026-05-07 07:19 | 53.05009 | 8.78631 | 17 ft | 8 kts | 292° |
| 2026-05-07 07:19 | 53.05037 | 8.78567 | 18 ft | 6 kts | 314° |
| 2026-05-07 07:19 | 53.05065 | 8.78528 | 18 ft | 4 kts | 320° |
| 2026-05-07 07:20 | 53.05090 | 8.78509 | 18 ft | 5 kts | 19° |
| 2026-05-07 07:20 | 53.05123 | 8.78560 | 19 ft | 5 kts | 49° |
| 2026-05-07 07:20 | 53.05141 | 8.78595 | 18 ft | 0 kts | 48° |
| 2026-05-07 07:20 | 53.05175 | 8.78539 | 20 ft | 0 kts | 49° |